sensor_id;sensor_type;location;lat;lon;timestamp;pressure;altitude;pressure_sealevel;temperature;humidity
56414;BME280;42318;48.452;19.526;2022-12-07T00:05:34;97986.28;;;19.27;55.79
56414;BME280;42318;48.452;19.526;2022-12-07T00:13:05;97979.75;;;19.23;55.82
56414;BME280;42318;48.452;19.526;2022-12-07T00:20:36;97977.31;;;19.26;55.81
56414;BME280;42318;48.452;19.526;2022-12-07T00:28:07;97978.13;;;19.27;55.57
56414;BME280;42318;48.452;19.526;2022-12-07T00:35:39;97981.94;;;19.26;55.72
56414;BME280;42318;48.452;19.526;2022-12-07T00:43:10;97984.66;;;19.26;55.57
56414;BME280;42318;48.452;19.526;2022-12-07T00:50:41;97979.22;;;19.26;55.72
56414;BME280;42318;48.452;19.526;2022-12-07T00:58:12;97978.66;;;19.24;55.58
56414;BME280;42318;48.452;19.526;2022-12-07T01:05:53;97966.16;;;19.23;55.72
56414;BME280;42318;48.452;19.526;2022-12-07T01:13:24;97967.81;;;19.24;55.73
56414;BME280;42318;48.452;19.526;2022-12-07T01:28:33;97963.44;;;19.23;55.57
56414;BME280;42318;48.452;19.526;2022-12-07T01:51:40;97943.06;;;19.20;55.73
56414;BME280;42318;48.452;19.526;2022-12-07T01:59:13;97947.69;;;19.20;55.69
56414;BME280;42318;48.452;19.526;2022-12-07T02:06:45;97943.34;;;19.19;55.84
56414;BME280;42318;48.452;19.526;2022-12-07T02:14:17;97951.22;;;19.20;55.69
56414;BME280;42318;48.452;19.526;2022-12-07T02:29:28;97929.75;;;19.19;55.47
56414;BME280;42318;48.452;19.526;2022-12-07T02:37:33;97933.56;;;19.18;55.77
56414;BME280;42318;48.452;19.526;2022-12-07T02:45:06;97941.97;;;19.16;55.74
56414;BME280;42318;48.452;19.526;2022-12-07T02:52:38;97931.91;;;19.17;55.47
56414;BME280;42318;48.452;19.526;2022-12-07T03:00:15;97937.34;;;19.17;55.67
56414;BME280;42318;48.452;19.526;2022-12-07T03:08:02;97923.78;;;19.17;55.50
56414;BME280;42318;48.452;19.526;2022-12-07T03:23:11;97924.84;;;19.16;55.45
56414;BME280;42318;48.452;19.526;2022-12-07T03:30:52;97921.31;;;19.15;55.42
56414;BME280;42318;48.452;19.526;2022-12-07T03:38:31;97917.22;;;19.12;55.51
56414;BME280;42318;48.452;19.526;2022-12-07T03:54:02;97914.00;;;19.16;55.25
56414;BME280;42318;48.452;19.526;2022-12-07T04:01:37;97914.00;;;19.16;55.11
56414;BME280;42318;48.452;19.526;2022-12-07T04:09:08;97911.28;;;19.16;55.57
56414;BME280;42318;48.452;19.526;2022-12-07T04:16:39;97905.84;;;19.16;55.51
56414;BME280;42318;48.452;19.526;2022-12-07T04:24:11;97911.28;;;19.16;55.27
56414;BME280;42318;48.452;19.526;2022-12-07T04:31:43;97900.13;;;19.12;55.31
56414;BME280;42318;48.452;19.526;2022-12-07T04:46:50;97891.72;;;19.13;55.33
56414;BME280;42318;48.452;19.526;2022-12-07T04:54:21;97903.66;;;19.12;55.01
56414;BME280;42318;48.452;19.526;2022-12-07T05:01:51;97902.56;;;19.13;55.21
56414;BME280;42318;48.452;19.526;2022-12-07T05:09:22;97906.38;;;19.12;55.30
56414;BME280;42318;48.452;19.526;2022-12-07T05:16:53;97899.25;;;19.06;55.43
56414;BME280;42318;48.452;19.526;2022-12-07T05:24:24;97903.38;;;19.09;54.53
56414;BME280;42318;48.452;19.526;2022-12-07T05:31:55;97910.44;;;19.10;55.32
56414;BME280;42318;48.452;19.526;2022-12-07T05:39:25;97903.09;;;19.10;55.39
56414;BME280;42318;48.452;19.526;2022-12-07T05:46:56;97905.81;;;19.10;55.37
56414;BME280;42318;48.452;19.526;2022-12-07T05:54:27;97902.28;;;19.10;55.35
56414;BME280;42318;48.452;19.526;2022-12-07T06:02:03;97905.00;;;19.10;55.08
56414;BME280;42318;48.452;19.526;2022-12-07T06:09:35;97906.91;;;19.09;55.19
56414;BME280;42318;48.452;19.526;2022-12-07T06:17:06;97895.22;;;19.09;55.06
56414;BME280;42318;48.452;19.526;2022-12-07T06:24:38;97906.91;;;19.09;55.24
56414;BME280;42318;48.452;19.526;2022-12-07T06:32:09;97907.41;;;19.06;54.97
56414;BME280;42318;48.452;19.526;2022-12-07T06:39:39;97919.91;;;19.07;55.19
56414;BME280;42318;48.452;19.526;2022-12-07T06:47:10;97919.66;;;19.09;55.17
56414;BME280;42318;48.452;19.526;2022-12-07T06:54:42;97921.28;;;19.10;55.10
56414;BME280;42318;48.452;19.526;2022-12-07T07:02:12;97923.19;;;19.09;55.24
56414;BME280;42318;48.452;19.526;2022-12-07T07:09:43;97922.13;;;19.10;55.59
56414;BME280;42318;48.452;19.526;2022-12-07T07:17:14;97924.81;;;19.10;55.56
56414;BME280;42318;48.452;19.526;2022-12-07T07:24:45;97930.25;;;19.10;55.31
56414;BME280;42318;48.452;19.526;2022-12-07T07:32:16;97920.22;;;19.11;55.32
56414;BME280;42318;48.452;19.526;2022-12-07T07:39:47;97928.34;;;19.11;55.66
56414;BME280;42318;48.452;19.526;2022-12-07T07:47:17;97928.63;;;19.09;55.62
56414;BME280;42318;48.452;19.526;2022-12-07T07:54:48;97930.25;;;19.10;55.70
56414;BME280;42318;48.452;19.526;2022-12-07T08:02:20;97916.34;;;19.07;56.01
56414;BME280;42318;48.452;19.526;2022-12-07T08:09:52;97938.97;;;19.12;55.91
56414;BME280;42318;48.452;19.526;2022-12-07T08:17:22;97942.19;;;19.09;55.79
56414;BME280;42318;48.452;19.526;2022-12-07T08:24:53;97940.03;;;19.11;55.79
56414;BME280;42318;48.452;19.526;2022-12-07T08:32:24;97942.75;;;19.11;55.83
56414;BME280;42318;48.452;19.526;2022-12-07T08:39:55;97953.63;;;19.11;55.77
56414;BME280;42318;48.452;19.526;2022-12-07T08:47:25;97951.16;;;19.10;55.74
56414;BME280;42318;48.452;19.526;2022-12-07T08:54:57;97967.19;;;19.11;55.60
56414;BME280;42318;48.452;19.526;2022-12-07T09:02:30;97958.22;;;19.11;55.64
56414;BME280;42318;48.452;19.526;2022-12-07T09:10:02;97958.22;;;19.11;55.75
56414;BME280;42318;48.452;19.526;2022-12-07T09:17:34;97959.88;;;19.12;55.83
56414;BME280;42318;48.452;19.526;2022-12-07T09:25:05;97944.13;;;19.14;55.57
56414;BME280;42318;48.452;19.526;2022-12-07T09:32:36;97933.00;;;19.16;55.67
56414;BME280;42318;48.452;19.526;2022-12-07T09:40:07;97941.69;;;19.18;55.49
56414;BME280;42318;48.452;19.526;2022-12-07T09:47:38;97937.38;;;19.22;55.39
56414;BME280;42318;48.452;19.526;2022-12-07T09:55:15;97925.44;;;19.23;55.38
56414;BME280;42318;48.452;19.526;2022-12-07T10:10:30;97915.69;;;19.32;55.26
56414;BME280;42318;48.452;19.526;2022-12-07T10:18:02;97909.19;;;19.38;55.04
56414;BME280;42318;48.452;19.526;2022-12-07T10:25:35;97902.16;;;19.42;54.86
56414;BME280;42318;48.452;19.526;2022-12-07T10:33:27;97899.72;;;19.45;55.19
56414;BME280;42318;48.452;19.526;2022-12-07T10:41:04;97892.44;;;19.51;55.03
56414;BME280;42318;48.452;19.526;2022-12-07T11:12:30;97886.00;;;19.77;54.76
56414;BME280;42318;48.452;19.526;2022-12-07T11:28:27;97878.38;;;19.80;54.57
56414;BME280;42318;48.452;19.526;2022-12-07T11:51:57;97859.34;;;19.69;54.78
56414;BME280;42318;48.452;19.526;2022-12-07T11:59:36;97844.66;;;19.65;54.83
56414;BME280;42318;48.452;19.526;2022-12-07T12:07:12;97846.28;;;19.61;54.72
56414;BME280;42318;48.452;19.526;2022-12-07T12:22:59;97847.06;;;19.52;55.20
56414;BME280;42318;48.452;19.526;2022-12-07T12:30:35;97842.94;;;19.49;55.42
56414;BME280;42318;48.452;19.526;2022-12-07T12:54:12;97837.47;;;19.39;55.64
56414;BME280;42318;48.452;19.526;2022-12-07T13:01:46;97848.34;;;19.39;55.47
56414;BME280;42318;48.452;19.526;2022-12-07T13:09:21;97855.94;;;19.37;55.90
56414;BME280;42318;48.452;19.526;2022-12-07T13:16:53;97876.88;;;19.36;56.04
56414;BME280;42318;48.452;19.526;2022-12-07T13:24:24;97871.16;;;19.33;56.17
56414;BME280;42318;48.452;19.526;2022-12-07T13:31:56;97877.13;;;19.35;56.57
56414;BME280;42318;48.452;19.526;2022-12-07T13:39:28;97874.97;;;19.37;56.71
56414;BME280;42318;48.452;19.526;2022-12-07T13:47:06;97892.91;;;19.38;57.09
56414;BME280;42318;48.452;19.526;2022-12-07T13:55:00;97889.91;;;19.39;57.68
56414;BME280;42318;48.452;19.526;2022-12-07T14:02:34;97889.09;;;19.39;57.98
56414;BME280;42318;48.452;19.526;2022-12-07T14:10:06;97895.06;;;19.41;58.25
56414;BME280;42318;48.452;19.526;2022-12-07T14:17:49;97890.72;;;19.40;58.29
56414;BME280;42318;48.452;19.526;2022-12-07T14:25:27;97890.72;;;19.40;58.40
56414;BME280;42318;48.452;19.526;2022-12-07T14:33:00;97882.56;;;19.40;58.45
56414;BME280;42318;48.452;19.526;2022-12-07T14:40:32;97883.13;;;19.37;58.03
56414;BME280;42318;48.452;19.526;2022-12-07T14:48:03;97891.00;;;19.38;57.73
56414;BME280;42318;48.452;19.526;2022-12-07T14:55:33;97905.66;;;19.37;57.70
56414;BME280;42318;48.452;19.526;2022-12-07T15:03:04;97912.44;;;19.35;57.42
56414;BME280;42318;48.452;19.526;2022-12-07T15:10:35;97915.72;;;19.37;57.59
56414;BME280;42318;48.452;19.526;2022-12-07T15:18:09;97914.91;;;19.36;57.30
56414;BME280;42318;48.452;19.526;2022-12-07T15:25:41;97928.47;;;19.36;57.23
56414;BME280;42318;48.452;19.526;2022-12-07T15:33:12;97915.97;;;19.35;57.03
56414;BME280;42318;48.452;19.526;2022-12-07T15:40:46;97923.31;;;19.35;56.98
56414;BME280;42318;48.452;19.526;2022-12-07T15:48:17;97926.03;;;19.35;57.04
56414;BME280;42318;48.452;19.526;2022-12-07T15:55:48;97927.66;;;19.36;57.00
56414;BME280;42318;48.452;19.526;2022-12-07T16:03:19;97946.41;;;19.37;57.73
56414;BME280;42318;48.452;19.526;2022-12-07T16:10:49;97948.03;;;19.38;57.55
56414;BME280;42318;48.452;19.526;2022-12-07T16:18:21;97960.53;;;19.39;57.82
56414;BME280;42318;48.452;19.526;2022-12-07T16:25:52;97954.28;;;19.39;57.42
56414;BME280;42318;48.452;19.526;2022-12-07T16:33:22;97939.91;;;19.38;57.53
56414;BME280;42318;48.452;19.526;2022-12-07T16:40:53;97939.06;;;19.38;57.69
56414;BME280;42318;48.452;19.526;2022-12-07T16:48:24;97959.44;;;19.35;57.03
56414;BME280;42318;48.452;19.526;2022-12-07T16:55:55;97955.09;;;19.34;57.08
56414;BME280;42318;48.452;19.526;2022-12-07T17:03:26;97955.91;;;19.35;56.69
56414;BME280;42318;48.452;19.526;2022-12-07T17:10:57;97955.34;;;19.33;57.04
56414;BME280;42318;48.452;19.526;2022-12-07T17:18:32;97960.22;;;19.31;56.69
56414;BME280;42318;48.452;19.526;2022-12-07T17:33:36;97968.66;;;19.29;56.74
56414;BME280;42318;48.452;19.526;2022-12-07T17:41:15;97975.97;;;19.29;56.52
56414;BME280;42318;48.452;19.526;2022-12-07T17:49:05;97975.97;;;19.29;56.66
56414;BME280;42318;48.452;19.526;2022-12-07T17:56:37;97983.31;;;19.28;56.52
56414;BME280;42318;48.452;19.526;2022-12-07T18:04:08;97984.38;;;19.27;56.67
56414;BME280;42318;48.452;19.526;2022-12-07T18:11:39;97983.31;;;19.28;56.84
56414;BME280;42318;48.452;19.526;2022-12-07T18:19:12;97986.03;;;19.28;56.79
56414;BME280;42318;48.452;19.526;2022-12-07T18:26:45;97996.88;;;19.28;57.08
56414;BME280;42318;48.452;19.526;2022-12-07T18:34:18;97996.88;;;19.28;57.18
56414;BME280;42318;48.452;19.526;2022-12-07T18:41:48;97985.22;;;19.28;56.95
56414;BME280;42318;48.452;19.526;2022-12-07T18:49:19;97980.31;;;19.30;56.99
56414;BME280;42318;48.452;19.526;2022-12-07T18:56:50;97978.44;;;19.30;56.76
56414;BME280;42318;48.452;19.526;2022-12-07T19:04:21;97995.53;;;19.31;57.06
56414;BME280;42318;48.452;19.526;2022-12-07T19:11:52;97996.38;;;19.31;56.91
56414;BME280;42318;48.452;19.526;2022-12-07T19:19:30;98000.97;;;19.31;56.71
56414;BME280;42318;48.452;19.526;2022-12-07T19:27:03;98022.19;;;19.34;56.51
56414;BME280;42318;48.452;19.526;2022-12-07T19:34:39;98008.59;;;19.34;56.70
56414;BME280;42318;48.452;19.526;2022-12-07T19:42:11;98016.75;;;19.34;56.46
56414;BME280;42318;48.452;19.526;2022-12-07T19:49:43;98024.63;;;19.35;56.36
56414;BME280;42318;48.452;19.526;2022-12-07T19:57:14;98026.28;;;19.36;56.52
56414;BME280;42318;48.452;19.526;2022-12-07T20:04:46;98023.00;;;19.34;56.48
56414;BME280;42318;48.452;19.526;2022-12-07T20:12:17;98018.38;;;19.35;56.25
56414;BME280;42318;48.452;19.526;2022-12-07T20:20:14;98022.19;;;19.34;56.48
56414;BME280;42318;48.452;19.526;2022-12-07T20:27:45;98021.38;;;19.33;56.22
56414;BME280;42318;48.452;19.526;2022-12-07T20:35:15;98010.50;;;19.33;56.25
56414;BME280;42318;48.452;19.526;2022-12-07T20:42:46;98011.31;;;19.34;56.25
56414;BME280;42318;48.452;19.526;2022-12-07T20:50:17;98015.13;;;19.33;56.20
56414;BME280;42318;48.452;19.526;2022-12-07T20:57:48;98028.44;;;19.34;55.93
56414;BME280;42318;48.452;19.526;2022-12-07T21:05:19;98042.84;;;19.35;56.06
56414;BME280;42318;48.452;19.526;2022-12-07T21:12:50;98037.41;;;19.35;55.99
56414;BME280;42318;48.452;19.526;2022-12-07T21:20:20;98037.97;;;19.37;56.30
56414;BME280;42318;48.452;19.526;2022-12-07T21:27:51;98035.50;;;19.35;56.08
56414;BME280;42318;48.452;19.526;2022-12-07T21:35:22;98037.66;;;19.33;55.96
56414;BME280;42318;48.452;19.526;2022-12-07T21:42:53;98042.25;;;19.28;55.90
56414;BME280;42318;48.452;19.526;2022-12-07T21:50:24;98042.00;;;19.29;55.76
56414;BME280;42318;48.452;19.526;2022-12-07T21:57:55;98045.78;;;19.28;55.93
56414;BME280;42318;48.452;19.526;2022-12-07T22:05:26;98050.41;;;19.28;55.63
56414;BME280;42318;48.452;19.526;2022-12-07T22:12:58;98059.63;;;19.27;55.90
56414;BME280;42318;48.452;19.526;2022-12-07T22:20:29;98053.38;;;19.26;56.12
56414;BME280;42318;48.452;19.526;2022-12-07T22:28:00;98043.84;;;19.24;55.88
56414;BME280;42318;48.452;19.526;2022-12-07T22:35:31;98039.25;;;19.24;55.75
56414;BME280;42318;48.452;19.526;2022-12-07T22:43:02;98048.16;;;19.20;55.99
56414;BME280;42318;48.452;19.526;2022-12-07T22:50:32;98042.47;;;19.21;55.68
56414;BME280;42318;48.452;19.526;2022-12-07T22:58:03;98042.47;;;19.21;55.81
56414;BME280;42318;48.452;19.526;2022-12-07T23:05:48;98038.94;;;19.21;55.91
56414;BME280;42318;48.452;19.526;2022-12-07T23:13:19;98027.53;;;19.19;55.72
56414;BME280;42318;48.452;19.526;2022-12-07T23:21:02;98032.97;;;19.19;55.87
56414;BME280;42318;48.452;19.526;2022-12-07T23:28:33;98019.38;;;19.19;55.92
56414;BME280;42318;48.452;19.526;2022-12-07T23:36:11;98012.00;;;19.14;55.91
56414;BME280;42318;48.452;19.526;2022-12-07T23:43:42;98032.41;;;19.17;55.85
56414;BME280;42318;48.452;19.526;2022-12-07T23:51:13;98026.97;;;19.17;55.77
56414;BME280;42318;48.452;19.526;2022-12-07T23:58:45;98033.47;;;19.16;55.63
